Adelbach, Germany

11:35 AM CET on December 05, 2016 (GMT +0100)
Kirgelweg | | Change Station

Elev 1234 ft 48.99 °N, 9.76 °E | Updated 3 minutes ago

Partly Cloudy
Partly Cloudy
29.3 °F
Feels Like 29 °F
N
1.0
Wind Variable Wind from NW
Gusts 3.0 mph

Today
High -- | Low -- °F
--% Chance of Precip.
Yesterday
High -- | Low -- °F
Precip. -- in
Pressure 30.33 in
Visibility -9999.0 miles
Clouds Few 400 ft
Windchill 29 °F
Dew Point 26 °F
Humidity 88%
Rainfall 0.00 in
Snow Depth Not available.
7:59 AM 4:24 PM
Waxing Crescent, 30% visible
METAR EDTY 051020Z 09006KT 4700 BR FEW004 M02/M03 Q1027
Pressure 30.33 in
Visibility -9999.0 miles
Clouds Few 400 ft
Windchill 29 °F
Dew Point 26 °F
Humidity 88%
Rainfall 0.00 in
Snow Depth Not available.
7:59 AM 4:24 PM
Waxing Crescent, 30% visible
METAR EDTY 051020Z 09006KT 4700 BR FEW004 M02/M03 Q1027

10-Day Weather Forecast

×

Almanac

Astronomy

Dec. 05, 2016 Rise Set
Actual Time
Civil Twilight
Nautical Twilight
Astronomical Twilight
Moon
Length of Visible Light
Length of Day
Tomorrow will be .
, % of the Moon is Illuminated

Today's Extremes

Country Highs Country Lows

Community

WunderPhotos

Upload Photos

1,955,777 photos uploaded!

WunderBlog® & News

Nearby

Air Quality

  Air Quality AQ Index Pollutant
Not available.

Snow Depth

Station Depth Elevation

Earthquake Activity

City Distance Mag. Time & Date
Minimum magnitude displayed is 2.5.

Coastal Water Temperatures

Place Temperature

Stations

Nearby Weather Stations

Station Location Temp. Windchill Dew Point Humidity Wind Precip. Elev Updated Type